Time;durP1;ratioP1;P1;durP2;ratioP2;P2;SDS_P1;SDS_P2;PMS_P1;PMS_P2;Temp;Humidity;BMP_temperature;BMP_pressure;BME280_temperature;BME280_humidity;BME280_pressure;Samples;Min_cycle;Max_cycle;Signal;HPM_P1;HPM_P2
2022/04/02 00:02:00;;;;;;;20.63;11.05;;;3.70;99.90;;;;;;4937462;29;20051;-87
2022/04/02 00:04:27;;;;;;;18.67;10.82;;;3.70;99.90;;;;;;4937437;29;20043;-88
2022/04/02 00:06:53;;;;;;;19.17;11.02;;;3.70;99.90;;;;;;4920631;29;20123;-87
2022/04/02 00:09:21;;;;;;;17.63;10.65;;;3.60;99.90;;;;;;4940921;29;20048;-88
2022/04/02 00:11:47;;;;;;;22.13;11.57;;;3.60;99.90;;;;;;4941730;29;20020;-88
2022/04/02 00:14:13;;;;;;;18.42;10.52;;;3.60;99.90;;;;;;4941878;29;20024;-88
2022/04/02 00:16:40;;;;;;;20.17;11.50;;;3.60;99.90;;;;;;4926048;29;20024;-87
2022/04/02 00:19:06;;;;;;;19.65;11.23;;;3.50;99.90;;;;;;4941710;29;20072;-87
2022/04/02 00:21:32;;;;;;;20.08;11.93;;;3.50;99.90;;;;;;4942202;29;20516;-88
2022/04/02 00:23:58;;;;;;;22.83;11.68;;;3.50;99.90;;;;;;4941619;29;20083;-87
2022/04/02 00:26:24;;;;;;;21.05;11.80;;;3.50;99.90;;;;;;4941918;29;20092;-87
2022/04/02 00:28:50;;;;;;;21.10;11.70;;;3.50;99.90;;;;;;4941842;29;20048;-88
2022/04/02 00:31:17;;;;;;;17.20;9.98;;;3.50;99.90;;;;;;4938512;29;20032;-86
2022/04/02 00:33:45;;;;;;;19.15;10.95;;;3.60;99.90;;;;;;4937121;29;20076;-87
2022/04/02 00:36:13;;;;;;;16.33;9.93;;;3.60;99.90;;;;;;4937182;29;20039;-86
2022/04/02 00:38:40;;;;;;;20.58;11.07;;;3.60;99.90;;;;;;4936468;29;20149;-86
2022/04/02 00:41:07;;;;;;;18.10;10.88;;;3.60;99.90;;;;;;4938132;29;20052;-87
2022/04/02 00:43:34;;;;;;;17.25;9.95;;;3.60;99.90;;;;;;4938409;29;20036;-87
2022/04/02 00:46:12;;;;;;;18.98;10.10;;;3.70;99.90;;;;;;4939146;29;20032;-86
2022/04/02 00:48:38;;;;;;;18.88;10.10;;;3.70;99.90;;;;;;4941362;29;20048;-87
2022/04/02 00:51:12;;;;;;;20.30;10.50;;;3.70;99.90;;;;;;4942096;29;20016;-88
2022/04/02 00:53:41;;;;;;;18.98;10.82;;;3.80;99.90;;;;;;4941418;29;20051;-88
2022/04/02 00:56:07;;;;;;;19.70;10.68;;;3.80;99.90;;;;;;4941240;29;20012;-86
2022/04/02 00:58:33;;;;;;;17.60;10.45;;;3.80;99.90;;;;;;4941613;29;20035;-89
2022/04/02 01:01:00;;;;;;;18.10;10.63;;;3.70;99.90;;;;;;4941177;29;20012;-87
2022/04/02 01:03:34;;;;;;;18.73;9.57;;;3.70;99.90;;;;;;4941700;29;20039;-88
2022/04/02 01:06:00;;;;;;;18.67;10.50;;;3.70;99.90;;;;;;4941650;29;20108;-87
2022/04/02 01:08:28;;;;;;;17.50;10.30;;;3.80;99.90;;;;;;4925192;29;20032;-86
2022/04/02 01:10:58;;;;;;;17.88;10.38;;;3.70;99.90;;;;;;4941177;29;20035;-86
2022/04/02 01:13:25;;;;;;;19.30;10.43;;;3.70;99.90;;;;;;4941194;29;20047;-88
2022/04/02 01:15:52;;;;;;;21.08;10.88;;;3.70;99.90;;;;;;4939618;29;20024;-86
2022/04/02 01:18:19;;;;;;;20.17;11.77;;;3.80;99.90;;;;;;4933158;29;20028;-86
2022/04/02 01:20:46;;;;;;;23.92;11.95;;;3.70;99.90;;;;;;4931728;29;20083;-88
2022/04/02 01:23:12;;;;;;;20.73;11.32;;;3.70;99.90;;;;;;4924026;29;20130;-87
2022/04/02 01:25:43;;;;;;;23.65;12.23;;;3.70;99.90;;;;;;4926750;29;20039;-85
2022/04/02 01:28:21;;;;;;;22.40;11.38;;;3.70;99.90;;;;;;4924986;29;20036;-88
2022/04/02 01:30:51;;;;;;;23.50;12.77;;;3.70;99.90;;;;;;4925378;29;20024;-86
2022/04/02 01:33:17;;;;;;;28.35;12.60;;;3.70;99.90;;;;;;4930357;29;20028;-86
2022/04/02 01:35:43;;;;;;;27.40;12.65;;;3.70;99.90;;;;;;4933661;29;20059;-87
2022/04/02 01:38:16;;;;;;;22.17;11.38;;;3.70;99.90;;;;;;4917501;29;20043;-87
2022/04/02 01:40:42;;;;;;;23.65;11.95;;;3.60;99.90;;;;;;4929779;29;20032;-87
2022/04/02 01:43:10;;;;;;;23.00;12.15;;;3.60;99.90;;;;;;4914585;29;20028;-87
2022/04/02 01:45:40;;;;;;;24.45;12.07;;;3.60;99.90;;;;;;4926826;29;20063;-87
2022/04/02 01:48:06;;;;;;;26.48;13.50;;;3.60;99.90;;;;;;4908562;29;20031;-87
2022/04/02 01:50:42;;;;;;;23.05;11.32;;;3.60;99.90;;;;;;4929370;29;20079;-86
2022/04/02 01:53:08;;;;;;;22.05;12.02;;;3.60;99.90;;;;;;4931165;29;20028;-88
2022/04/02 01:55:34;;;;;;;24.90;13.07;;;3.60;99.90;;;;;;4922644;29;20035;-87
2022/04/02 01:58:13;;;;;;;29.30;13.38;;;3.60;99.90;;;;;;4921736;29;20039;-86
2022/04/02 02:00:43;;;;;;;26.60;12.77;;;3.60;99.90;;;;;;4922415;29;20032;-88
2022/04/02 02:03:12;;;;;;;23.40;12.75;;;3.50;99.90;;;;;;4923131;29;20051;-87
2022/04/02 02:05:37;;;;;;;22.85;12.38;;;3.60;99.90;;;;;;4921096;29;20028;-86
2022/04/02 02:08:04;;;;;;;25.27;11.70;;;3.50;99.90;;;;;;4923735;29;20028;-88
2022/04/02 02:10:40;;;;;;;22.50;12.60;;;3.50;99.90;;;;;;4938667;29;20025;-87
2022/04/02 02:13:26;;;;;;;22.88;11.60;;;3.60;99.90;;;;;;4925286;29;20040;-89
2022/04/02 02:15:53;;;;;;;24.13;12.95;;;3.60;99.90;;;;;;4925844;29;20038;-88
2022/04/02 02:18:18;;;;;;;23.23;12.27;;;3.60;99.90;;;;;;4927522;29;20106;-88
2022/04/02 02:20:44;;;;;;;23.77;12.63;;;3.60;99.90;;;;;;4928743;29;20059;-86
2022/04/02 02:23:10;;;;;;;23.40;13.02;;;3.60;99.90;;;;;;4931882;29;20099;-87
2022/04/02 02:25:36;;;;;;;23.70;12.68;;;3.60;99.90;;;;;;4937210;29;20142;-86
2022/04/02 02:28:02;;;;;;;26.58;12.82;;;3.60;99.90;;;;;;4933676;29;20083;-87
2022/04/02 02:30:31;;;;;;;22.80;12.40;;;3.60;99.90;;;;;;4929417;29;20226;-85
2022/04/02 02:35:50;;;;;;;;;;;3.60;99.90;;;;;;4937144;29;20091;-87
2022/04/02 02:38:21;;;;;;;24.50;12.20;;;3.60;99.90;;;;;;4935246;29;19990;-87
2022/04/02 02:40:57;;;;;;;22.35;12.07;;;3.60;99.90;;;;;;4932458;29;20028;-86
2022/04/02 02:43:30;;;;;;;24.30;12.52;;;3.60;99.90;;;;;;4933452;29;20036;-83
2022/04/02 02:46:06;;;;;;;25.08;12.23;;;3.60;99.90;;;;;;4940668;29;20028;-86
2022/04/02 02:48:33;;;;;;;26.00;11.38;;;3.60;99.90;;;;;;4942822;29;20065;-87
2022/04/02 02:50:58;;;;;;;24.67;12.02;;;3.60;99.90;;;;;;4942090;29;20028;-87
2022/04/02 02:53:25;;;;;;;25.30;12.00;;;3.60;99.90;;;;;;4939992;29;20028;-86
2022/04/02 02:55:51;;;;;;;24.38;12.75;;;3.60;99.90;;;;;;4938252;29;20032;-87
2022/04/02 02:58:19;;;;;;;21.52;11.52;;;3.60;99.90;;;;;;4942446;29;20008;-88
2022/04/02 03:00:46;;;;;;;20.05;11.65;;;3.60;99.90;;;;;;4941715;29;20096;-87
2022/04/02 03:03:18;;;;;;;24.70;11.43;;;3.70;99.90;;;;;;4915254;29;20381;-87
2022/04/02 03:05:47;;;;;;;26.35;11.45;;;3.70;99.90;;;;;;4932272;29;20032;-85
2022/04/02 03:08:13;;;;;;;20.10;11.07;;;3.70;99.90;;;;;;4939361;29;20013;-87
2022/04/02 03:10:50;;;;;;;21.88;12.07;;;3.60;99.90;;;;;;4941961;29;20044;-88
2022/04/02 03:13:23;;;;;;;22.25;11.30;;;3.60;99.90;;;;;;4941655;29;20103;-88
2022/04/02 03:15:51;;;;;;;21.63;11.35;;;3.60;99.90;;;;;;4942970;29;20067;-86
2022/04/02 03:18:17;;;;;;;22.15;10.90;;;3.60;99.90;;;;;;4943447;29;20084;-86
2022/04/02 03:20:46;;;;;;;25.38;11.45;;;3.60;99.90;;;;;;4941706;29;20072;-85
2022/04/02 03:23:19;;;;;;;20.55;11.25;;;3.60;99.90;;;;;;4939853;29;20032;-87
2022/04/02 03:25:45;;;;;;;22.25;11.23;;;3.50;99.90;;;;;;4942378;29;20056;-85
2022/04/02 03:28:12;;;;;;;18.70;10.85;;;3.60;99.90;;;;;;4943138;29;20012;-87
2022/04/02 03:30:38;;;;;;;23.42;11.07;;;3.50;99.90;;;;;;4943280;29;20038;-87
2022/04/02 03:33:04;;;;;;;17.77;10.40;;;3.60;99.90;;;;;;4936112;29;20088;-86
2022/04/02 03:35:31;;;;;;;28.52;11.85;;;3.60;99.90;;;;;;4931962;29;20056;-88
2022/04/02 03:37:57;;;;;;;17.70;10.02;;;3.60;99.90;;;;;;4928039;29;20119;-86
2022/04/02 03:40:26;;;;;;;23.38;10.32;;;3.60;99.90;;;;;;4930003;29;20028;-87
2022/04/02 03:42:53;;;;;;;21.25;10.60;;;3.60;99.90;;;;;;4928065;29;20032;-86
2022/04/02 03:45:28;;;;;;;20.38;10.18;;;3.60;99.90;;;;;;4926217;29;20059;-87
2022/04/02 03:47:57;;;;;;;22.50;9.70;;;3.60;99.90;;;;;;4926426;29;20550;-87
2022/04/02 03:50:24;;;;;;;18.45;10.38;;;3.60;99.90;;;;;;4926099;29;20034;-87
2022/04/02 03:52:54;;;;;;;20.88;10.27;;;3.60;99.90;;;;;;4927469;29;20025;-87
2022/04/02 03:55:34;;;;;;;16.42;9.75;;;3.60;99.90;;;;;;4927426;29;20032;-87
2022/04/02 03:58:04;;;;;;;16.80;9.52;;;3.70;99.90;;;;;;4926922;29;20043;-89
2022/04/02 04:00:31;;;;;;;22.27;9.90;;;3.70;99.90;;;;;;4925937;29;20061;-88
2022/04/02 04:03:03;;;;;;;17.35;9.50;;;3.60;99.90;;;;;;4919730;29;20028;-87
2022/04/02 04:05:34;;;;;;;19.42;10.18;;;3.60;99.90;;;;;;4929533;23;20028;-82
2022/04/02 04:08:02;;;;;;;21.02;10.65;;;3.60;99.90;;;;;;4907691;29;20064;-83
2022/04/02 04:10:29;;;;;;;18.98;10.23;;;3.60;99.90;;;;;;4907356;29;20401;-82
2022/04/02 04:12:55;;;;;;;19.88;10.18;;;3.70;99.90;;;;;;4911139;29;20036;-80
2022/04/02 04:15:25;;;;;;;20.38;9.20;;;3.60;99.90;;;;;;4914360;29;20122;-82
2022/04/02 04:17:52;;;;;;;20.88;10.77;;;3.60;99.90;;;;;;4912378;29;20092;-85
2022/04/02 04:20:20;;;;;;;18.77;9.85;;;3.60;99.90;;;;;;4916506;29;20040;-82
2022/04/02 04:22:46;;;;;;;21.95;10.35;;;3.60;99.90;;;;;;4896321;29;20028;-81
2022/04/02 04:25:15;;;;;;;27.58;10.07;;;3.60;99.90;;;;;;4896765;29;20071;-81
2022/04/02 04:27:44;;;;;;;20.95;10.32;;;3.60;99.90;;;;;;4922313;29;20073;-81
2022/04/02 04:30:10;;;;;;;20.23;10.48;;;3.60;99.90;;;;;;4915491;29;20021;-81
2022/04/02 04:32:36;;;;;;;24.38;10.80;;;3.60;99.90;;;;;;4916140;29;20427;-81
2022/04/02 04:35:03;;;;;;;19.50;9.88;;;3.60;99.90;;;;;;4913709;29;20021;-82
2022/04/02 04:37:29;;;;;;;19.13;10.18;;;3.60;99.90;;;;;;4923009;29;20068;-81
2022/04/02 04:39:55;;;;;;;21.83;10.80;;;3.60;99.90;;;;;;4902200;29;20027;-82
2022/04/02 04:42:21;;;;;;;17.10;10.35;;;3.60;99.90;;;;;;4915514;29;20025;-82
2022/04/02 04:44:48;;;;;;;20.52;9.77;;;3.60;99.90;;;;;;4902361;29;20025;-83
2022/04/02 04:47:17;;;;;;;18.58;10.32;;;3.60;99.90;;;;;;4915164;29;20029;-81
2022/04/02 04:49:52;;;;;;;27.77;11.07;;;3.60;99.90;;;;;;4917519;29;20017;-80
2022/04/02 04:52:18;;;;;;;17.63;10.70;;;3.60;99.90;;;;;;4921235;29;20044;-82
2022/04/02 04:54:45;;;;;;;24.10;10.70;;;3.60;99.90;;;;;;4914139;29;20048;-80
2022/04/02 04:57:14;;;;;;;18.75;11.23;;;3.60;99.90;;;;;;4913146;29;20121;-81
2022/04/02 04:59:45;;;;;;;25.13;11.15;;;3.60;99.90;;;;;;4912808;29;20040;-80
2022/04/02 05:02:14;;;;;;;27.17;10.63;;;3.70;99.90;;;;;;4908931;29;20445;-82
2022/04/02 05:04:41;;;;;;;19.93;10.87;;;3.60;99.90;;;;;;4850310;29;1728299;-82
2022/04/02 05:07:07;;;;;;;17.15;10.45;;;3.70;99.90;;;;;;4912593;29;20033;-81
2022/04/02 05:09:33;;;;;;;19.10;10.93;;;3.70;99.90;;;;;;4910888;29;20029;-81
2022/04/02 05:12:04;;;;;;;20.60;11.18;;;3.70;99.90;;;;;;4910339;29;20084;-81
2022/04/02 05:14:32;;;;;;;19.00;10.68;;;3.70;99.90;;;;;;4883972;29;20527;-81
2022/04/02 05:17:01;;;;;;;29.15;10.32;;;3.80;99.90;;;;;;4916492;29;20103;-82
2022/04/02 05:19:31;;;;;;;22.58;10.48;;;3.80;99.90;;;;;;4911788;29;20528;-82
2022/04/02 05:22:00;;;;;;;22.92;10.32;;;3.80;99.90;;;;;;4912332;29;20031;-80
2022/04/02 05:24:27;;;;;;;21.65;11.05;;;3.80;99.90;;;;;;4909782;29;20036;-80
2022/04/02 05:26:55;;;;;;;21.67;10.73;;;3.90;99.90;;;;;;4917916;29;20029;-81
2022/04/02 05:29:22;;;;;;;22.15;11.13;;;3.90;99.90;;;;;;4916224;29;20044;-82
2022/04/02 05:31:48;;;;;;;29.10;10.20;;;3.90;99.90;;;;;;4915664;29;20028;-82
2022/04/02 05:34:14;;;;;;;20.08;10.63;;;3.90;99.90;;;;;;4902665;29;20028;-83
2022/04/02 05:36:41;;;;;;;19.67;11.00;;;3.90;99.90;;;;;;4904215;29;20092;-82
2022/04/02 05:39:07;;;;;;;32.10;11.32;;;4.00;99.90;;;;;;4887284;29;20403;-82
2022/04/02 05:41:33;;;;;;;31.63;10.55;;;4.00;99.90;;;;;;4909780;29;20115;-81
2022/04/02 05:43:59;;;;;;;20.13;10.10;;;4.00;99.90;;;;;;4897299;29;20028;-82
2022/04/02 05:46:25;;;;;;;19.95;10.38;;;4.10;99.90;;;;;;4919166;29;20170;-82
2022/04/02 05:48:51;;;;;;;27.73;10.38;;;4.10;99.90;;;;;;4915694;29;20021;-82
2022/04/02 05:51:18;;;;;;;22.33;10.80;;;4.10;99.90;;;;;;4918407;29;20087;-83
2022/04/02 05:53:44;;;;;;;24.08;10.13;;;4.10;99.90;;;;;;4922382;29;20032;-82
2022/04/02 05:56:10;;;;;;;24.77;10.13;;;4.10;99.90;;;;;;4919435;29;20041;-81
2022/04/02 05:58:37;;;;;;;24.30;10.63;;;4.20;99.90;;;;;;4910429;29;20055;-81
2022/04/02 06:01:04;;;;;;;20.90;10.60;;;4.20;99.90;;;;;;4915920;29;20040;-81
2022/04/02 06:03:29;;;;;;;28.58;11.20;;;4.30;99.90;;;;;;4925891;29;20038;-82
2022/04/02 06:05:55;;;;;;;22.75;10.55;;;4.20;99.90;;;;;;4927452;29;20067;-81
2022/04/02 06:08:21;;;;;;;23.25;10.63;;;4.20;99.90;;;;;;4928972;29;20013;-82
2022/04/02 06:10:47;;;;;;;25.42;10.43;;;4.30;99.90;;;;;;4935461;29;20029;-82
2022/04/02 06:13:14;;;;;;;25.63;11.07;;;4.30;99.90;;;;;;4928730;29;20152;-82
2022/04/02 06:15:39;;;;;;;22.65;10.40;;;4.40;99.90;;;;;;4904652;29;20116;-80
2022/04/02 06:18:07;;;;;;;23.73;9.98;;;4.30;99.90;;;;;;4910253;29;20032;-81
2022/04/02 06:20:33;;;;;;;20.08;10.27;;;4.20;99.90;;;;;;4910599;29;20096;-81
2022/04/02 06:22:59;;;;;;;26.75;10.10;;;4.20;99.90;;;;;;4913494;29;20024;-84
2022/04/02 06:25:25;;;;;;;18.67;9.55;;;4.20;99.90;;;;;;4914371;29;20040;-82
2022/04/02 06:27:54;;;;;;;25.40;10.27;;;4.30;99.90;;;;;;4911063;29;20044;-83
2022/04/02 06:30:21;;;;;;;20.25;10.23;;;4.30;99.90;;;;;;4911231;29;20044;-83
2022/04/02 06:32:47;;;;;;;19.58;10.13;;;4.30;99.90;;;;;;4911571;29;20288;-81
2022/04/02 06:35:13;;;;;;;22.27;10.55;;;4.20;99.90;;;;;;4911933;29;20024;-81
2022/04/02 06:37:40;;;;;;;19.58;10.05;;;4.10;99.90;;;;;;4913077;29;20036;-79
2022/04/02 06:40:09;;;;;;;21.90;9.93;;;4.10;99.90;;;;;;4917697;29;20032;-82
2022/04/02 06:42:36;;;;;;;22.67;10.05;;;4.10;99.90;;;;;;4911033;29;20084;-81
2022/04/02 06:45:07;;;;;;;24.10;11.55;;;4.10;99.90;;;;;;4881094;29;20056;-83
2022/04/02 06:47:33;;;;;;;22.25;9.65;;;4.10;99.90;;;;;;4913791;29;20046;-80
2022/04/02 06:50:04;;;;;;;24.10;10.13;;;4.30;99.90;;;;;;4914024;29;20103;-82
2022/04/02 06:52:30;;;;;;;20.02;10.35;;;4.40;99.90;;;;;;4909123;29;20040;-81
2022/04/02 06:54:56;;;;;;;27.33;10.15;;;4.40;99.90;;;;;;4906397;29;20032;-84
2022/04/02 06:57:22;;;;;;;23.83;10.80;;;4.40;99.90;;;;;;4908895;29;20113;-81
2022/04/02 06:59:48;;;;;;;20.17;10.50;;;4.50;99.90;;;;;;4908111;29;20024;-82
2022/04/02 07:02:16;;;;;;;27.17;10.02;;;4.60;99.90;;;;;;4914644;29;20043;-81
2022/04/02 07:04:42;;;;;;;21.30;10.35;;;4.50;99.90;;;;;;4915816;29;20024;-82
2022/04/02 07:07:09;;;;;;;21.25;10.05;;;4.60;99.90;;;;;;4910654;29;20040;-80
2022/04/02 07:09:35;;;;;;;24.25;11.15;;;4.60;99.90;;;;;;4910949;29;20025;-82
2022/04/02 07:12:01;;;;;;;23.92;10.07;;;4.60;99.90;;;;;;4918664;29;20396;-80
2022/04/02 07:14:27;;;;;;;31.35;10.80;;;4.70;99.90;;;;;;4918678;29;20028;-81
2022/04/02 07:16:53;;;;;;;24.77;11.35;;;4.70;99.90;;;;;;4909579;29;20033;-80
2022/04/02 07:19:24;;;;;;;25.10;10.70;;;4.60;99.90;;;;;;4909626;29;20034;-81
2022/04/02 07:21:52;;;;;;;27.95;11.52;;;4.60;99.90;;;;;;4920626;29;20056;-82
2022/04/02 07:24:19;;;;;;;20.45;9.88;;;4.60;99.90;;;;;;4903624;29;20035;-80
2022/04/02 07:26:46;;;;;;;25.35;11.18;;;4.60;99.90;;;;;;4920696;29;20044;-86
2022/04/02 07:29:13;;;;;;;28.40;11.10;;;4.70;99.90;;;;;;4910248;29;20035;-87
2022/04/02 07:31:40;;;;;;;23.55;11.10;;;4.80;99.90;;;;;;4912966;29;20036;-82
2022/04/02 07:34:06;;;;;;;20.65;10.00;;;4.80;99.90;;;;;;4909750;29;20519;-81
2022/04/02 07:36:35;;;;;;;25.08;10.45;;;4.90;99.90;;;;;;4905775;29;20428;-82
2022/04/02 07:39:09;;;;;;;21.58;10.77;;;5.00;99.90;;;;;;4905784;29;20060;-82
2022/04/02 07:41:54;;;;;;;20.17;10.40;;;5.10;99.90;;;;;;4905109;29;20047;-82
2022/04/02 07:44:25;;;;;;;21.95;10.38;;;5.00;99.90;;;;;;4904354;29;20470;-82
2022/04/02 07:46:52;;;;;;;22.65;11.02;;;5.20;99.90;;;;;;4904878;29;20048;-83
2022/04/02 07:49:21;;;;;;;21.50;11.13;;;5.40;99.90;;;;;;4907204;29;20043;-81
2022/04/02 07:51:53;;;;;;;21.02;11.27;;;5.60;99.90;;;;;;4911856;29;20064;-83
2022/04/02 07:54:23;;;;;;;18.83;10.32;;;5.70;99.90;;;;;;4909061;29;20024;-82
2022/04/02 07:56:51;;;;;;;27.23;10.95;;;5.70;99.90;;;;;;4906301;29;20058;-82
2022/04/02 07:59:32;;;;;;;21.80;10.50;;;5.80;99.90;;;;;;4906469;29;20088;-81
2022/04/02 08:01:59;;;;;;;24.70;10.68;;;5.70;99.90;;;;;;4908173;29;20032;-82
2022/04/02 08:04:26;;;;;;;37.17;11.70;;;5.50;99.90;;;;;;4908736;29;20028;-82
2022/04/02 08:06:53;;;;;;;21.92;10.93;;;5.50;99.90;;;;;;4918721;29;20072;-83
2022/04/02 08:09:26;;;;;;;22.95;11.95;;;5.60;99.90;;;;;;4907688;29;20036;-82
2022/04/02 08:11:52;;;;;;;21.42;10.98;;;5.60;99.90;;;;;;4909009;29;20047;-83
2022/04/02 08:14:18;;;;;;;25.33;10.85;;;5.60;99.90;;;;;;4915752;29;20028;-82
2022/04/02 08:16:44;;;;;;;22.25;11.30;;;5.60;99.90;;;;;;4918159;29;20020;-81
2022/04/02 08:19:12;;;;;;;27.05;10.93;;;5.50;99.90;;;;;;4902532;29;20047;-79
2022/04/02 08:21:38;;;;;;;30.20;11.32;;;5.40;99.90;;;;;;4917479;29;20044;-80
2022/04/02 08:24:05;;;;;;;23.08;10.25;;;5.40;99.90;;;;;;4916124;29;20047;-83
2022/04/02 08:26:44;;;;;;;22.50;11.50;;;5.40;99.90;;;;;;4899116;29;20104;-82
2022/04/02 08:29:56;;;;;;;19.55;11.43;;;5.50;99.90;;;;;;4911338;29;20039;-82
2022/04/02 08:32:31;;;;;;;28.05;11.15;;;5.60;99.90;;;;;;4892491;29;20073;-81
2022/04/02 08:35:06;;;;;;;26.10;11.52;;;5.50;99.90;;;;;;4913543;29;20029;-82
2022/04/02 08:37:52;;;;;;;23.20;10.75;;;5.50;99.90;;;;;;4915136;29;20032;-81
2022/04/02 08:40:35;;;;;;;20.88;9.90;;;5.70;99.90;;;;;;4912991;29;20063;-81
2022/04/02 08:43:25;;;;;;;20.45;10.55;;;5.80;99.90;;;;;;4909832;29;20044;-84
2022/04/02 08:46:10;;;;;;;21.88;10.82;;;5.80;99.90;;;;;;4910928;29;20071;-83
2022/04/02 08:48:41;;;;;;;21.50;10.20;;;5.90;99.90;;;;;;4907286;29;20044;-82
2022/04/02 08:51:21;;;;;;;17.70;9.73;;;5.90;99.90;;;;;;4903801;29;20029;-83
2022/04/02 08:53:52;;;;;;;21.67;9.63;;;6.10;99.90;;;;;;4904767;29;20127;-82
2022/04/02 08:56:25;;;;;;;21.88;10.27;;;6.10;99.90;;;;;;4905866;29;20088;-81
2022/04/02 08:58:56;;;;;;;29.63;10.02;;;6.10;99.90;;;;;;4905569;29;20043;-82
2022/04/02 09:01:28;;;;;;;22.55;10.40;;;6.10;99.90;;;;;;4907490;29;20040;-81
2022/04/02 09:03:56;;;;;;;21.10;9.27;;;6.30;99.90;;;;;;4907179;29;20033;-82
2022/04/02 09:06:48;;;;;;;22.67;9.90;;;6.30;99.90;;;;;;4904769;29;20037;-80
2022/04/02 09:09:42;;;;;;;19.38;9.43;;;6.40;99.90;;;;;;4884477;29;20070;-82
2022/04/02 09:12:26;;;;;;;20.90;9.60;;;6.40;99.90;;;;;;4902446;29;20036;-83
2022/04/02 09:15:01;;;;;;;20.88;9.73;;;6.60;99.90;;;;;;4909072;29;20032;-82
2022/04/02 09:17:49;;;;;;;25.73;9.55;;;6.80;99.90;;;;;;4904155;29;20416;-82
2022/04/02 09:20:42;;;;;;;23.33;9.45;;;6.80;99.90;;;;;;4902805;29;20104;-83
2022/04/02 09:23:34;;;;;;;16.35;9.00;;;6.60;99.90;;;;;;4897134;29;20037;-81
2022/04/02 09:26:19;;;;;;;24.88;8.40;;;6.70;99.90;;;;;;4901760;29;20039;-81
2022/04/02 09:29:16;;;;;;;22.23;9.35;;;6.80;99.70;;;;;;4903746;29;20033;-82
2022/04/02 09:32:06;;;;;;;20.27;8.50;;;6.80;99.40;;;;;;4904165;29;20039;-81
2022/04/02 09:34:41;;;;;;;22.23;8.90;;;6.50;99.80;;;;;;4887180;29;20043;-83
2022/04/02 09:37:35;;;;;;;23.08;9.27;;;6.50;99.90;;;;;;4902138;29;20028;-83
2022/04/02 09:40:09;;;;;;;19.15;9.27;;;6.70;99.40;;;;;;4906593;29;20119;-84
2022/04/02 09:42:51;;;;;;;18.40;10.48;;;6.70;99.30;;;;;;4906642;29;20039;-82
2022/04/02 09:45:21;;;;;;;20.20;8.70;;;6.80;99.50;;;;;;4905572;29;20092;-83
2022/04/02 09:48:06;;;;;;;22.90;9.23;;;6.80;99.00;;;;;;4905405;29;20068;-82
2022/04/02 09:50:32;;;;;;;17.48;7.85;;;6.90;98.90;;;;;;4906915;29;20446;-83
2022/04/02 09:53:23;;;;;;;21.65;9.32;;;6.90;98.30;;;;;;4904975;29;20434;-84
2022/04/02 09:56:01;;;;;;;20.98;8.52;;;6.70;98.70;;;;;;4910641;29;20037;-83
2022/04/02 09:58:57;;;;;;;21.25;9.57;;;6.60;99.10;;;;;;4910207;29;20540;-83
2022/04/02 10:01:47;;;;;;;26.48;9.60;;;6.50;99.10;;;;;;4914538;29;20040;-82
2022/04/02 10:04:38;;;;;;;22.08;9.93;;;6.50;98.90;;;;;;4905818;29;20047;-84
2022/04/02 10:07:07;;;;;;;24.88;9.45;;;6.30;98.90;;;;;;5038974;23;20069;-88
2022/04/02 10:09:38;;;;;;;26.83;9.50;;;6.40;99.20;;;;;;4917993;29;20055;-89
2022/04/02 10:12:07;;;;;;;25.40;9.50;;;6.50;98.80;;;;;;4917636;29;20044;-89
2022/04/02 10:14:35;;;;;;;26.55;10.05;;;6.50;98.60;;;;;;4917674;29;20392;-89
2022/04/02 10:17:04;;;;;;;23.30;10.15;;;6.50;98.60;;;;;;4900235;29;20067;-89
2022/04/02 10:19:35;;;;;;;22.85;9.25;;;6.60;98.60;;;;;;4913795;29;20053;-89
2022/04/02 10:22:04;;;;;;;24.75;10.23;;;6.60;98.40;;;;;;4919323;29;20096;-88
2022/04/02 10:24:50;;;;;;;31.00;10.25;;;6.60;98.50;;;;;;4915189;29;20073;-89
2022/04/02 10:27:43;;;;;;;23.55;10.15;;;6.60;98.80;;;;;;4918084;29;20040;-88
2022/04/02 10:30:11;;;;;;;24.88;9.65;;;6.60;99.20;;;;;;4912612;29;20043;-89
2022/04/02 10:32:51;;;;;;;22.23;10.10;;;6.70;98.80;;;;;;4912740;29;20032;-89
2022/04/02 10:35:19;;;;;;;18.00;9.25;;;6.70;98.70;;;;;;4917654;29;20076;-90
2022/04/02 10:38:05;;;;;;;19.67;9.23;;;6.70;98.50;;;;;;4921227;29;20021;-89
2022/04/02 10:40:34;;;;;;;23.95;9.60;;;6.50;98.90;;;;;;4921456;29;20029;-89
2022/04/02 10:43:06;;;;;;;22.83;9.63;;;6.40;98.70;;;;;;4902602;29;20057;-89
2022/04/02 10:45:39;;;;;;;23.67;9.60;;;6.40;98.60;;;;;;4917974;29;20048;-88
2022/04/02 10:48:11;;;;;;;21.02;8.38;;;6.20;98.30;;;;;;4916950;29;20045;-89
2022/04/02 10:50:39;;;;;;;26.10;9.77;;;6.00;98.60;;;;;;4921070;29;20039;-89
2022/04/02 10:53:06;;;;;;;25.65;9.48;;;5.90;98.80;;;;;;4921220;29;20024;-88
2022/04/02 10:55:33;;;;;;;24.40;10.00;;;5.80;99.50;;;;;;4921698;29;20039;-89
2022/04/02 10:58:00;;;;;;;23.13;10.38;;;5.80;99.40;;;;;;4921422;29;20033;-88
2022/04/02 11:00:27;;;;;;;21.17;9.68;;;5.80;99.30;;;;;;4921644;29;20039;-89
2022/04/02 11:03:03;;;;;;;23.45;9.43;;;5.70;99.10;;;;;;4903857;29;20040;-89
2022/04/02 11:05:35;;;;;;;27.90;9.88;;;5.70;99.10;;;;;;4905537;29;20078;-88
2022/04/02 11:08:09;;;;;;;26.92;8.82;;;5.70;99.20;;;;;;4920228;29;20033;-89
2022/04/02 11:10:35;;;;;;;22.05;9.68;;;5.70;99.10;;;;;;4919601;29;20037;-89
2022/04/02 11:13:04;;;;;;;26.55;9.65;;;5.70;99.30;;;;;;4917826;29;20028;-89
2022/04/02 11:15:36;;;;;;;28.67;9.82;;;5.60;99.50;;;;;;4917404;29;20048;-89
2022/04/02 11:18:03;;;;;;;22.95;9.63;;;5.60;99.80;;;;;;4916155;29;20040;-89
2022/04/02 11:20:30;;;;;;;20.15;8.93;;;5.60;99.80;;;;;;4916303;29;20036;-89
2022/04/02 11:23:17;;;;;;;27.70;10.30;;;5.50;99.90;;;;;;4915245;29;20029;-89
2022/04/02 11:25:54;;;;;;;25.48;9.15;;;5.60;99.90;;;;;;4916482;29;20039;-88
2022/04/02 11:28:23;;;;;;;23.10;9.57;;;5.60;99.90;;;;;;4915640;29;20048;-89
2022/04/02 11:30:59;;;;;;;21.42;9.13;;;5.70;99.60;;;;;;4920902;29;20060;-88
2022/04/02 11:33:25;;;;;;;27.80;9.10;;;5.70;99.30;;;;;;4915481;29;20073;-89
2022/04/02 11:35:55;;;;;;;26.00;9.63;;;5.70;99.40;;;;;;4914615;29;20039;-86
2022/04/02 11:38:24;;;;;;;26.92;9.75;;;5.70;99.40;;;;;;4907458;29;20024;-88
2022/04/02 11:40:56;;;;;;;21.67;9.70;;;5.60;99.40;;;;;;4915815;29;20029;-89
2022/04/02 11:43:38;;;;;;;21.83;9.68;;;5.60;99.60;;;;;;4917105;29;20032;-91
2022/04/02 11:46:07;;;;;;;19.88;10.18;;;5.60;99.80;;;;;;4916895;29;20047;-89
2022/04/02 11:48:36;;;;;;;21.23;10.07;;;5.70;99.60;;;;;;4919034;29;20063;-85
2022/04/02 11:51:17;;;;;;;23.17;9.95;;;5.80;99.60;;;;;;4918441;29;20036;-87
2022/04/02 11:53:44;;;;;;;27.73;10.48;;;5.70;99.50;;;;;;4920516;29;20071;-87
2022/04/02 11:56:27;;;;;;;22.65;9.88;;;5.60;99.80;;;;;;4920139;29;20029;-87
2022/04/02 11:58:59;;;;;;;25.83;9.55;;;5.70;99.80;;;;;;4921846;29;20048;-87
2022/04/02 12:01:25;;;;;;;22.88;10.50;;;5.80;99.70;;;;;;4922343;29;20040;-88
2022/04/02 12:04:15;;;;;;;21.85;10.52;;;5.80;99.90;;;;;;4919463;29;20039;-87
2022/04/02 12:06:45;;;;;;;23.02;10.00;;;5.80;99.90;;;;;;4921565;29;20069;-87
2022/04/02 12:09:18;;;;;;;22.52;9.75;;;5.80;99.90;;;;;;4920991;29;20029;-88
2022/04/02 12:11:58;;;;;;;21.95;10.25;;;5.70;99.90;;;;;;4920717;29;20071;-86
2022/04/02 12:14:37;;;;;;;19.40;9.82;;;5.70;99.90;;;;;;4922359;29;20021;-88
2022/04/02 12:17:10;;;;;;;18.90;9.40;;;5.70;99.90;;;;;;4921581;29;20051;-88
2022/04/02 12:19:39;;;;;;;20.98;10.20;;;5.60;99.90;;;;;;4922563;29;20021;-87
2022/04/02 12:22:31;;;;;;;21.88;10.10;;;5.60;99.90;;;;;;4907282;29;20028;-86
2022/04/02 12:24:58;;;;;;;21.55;9.82;;;5.50;99.90;;;;;;4922669;29;20028;-87
2022/04/02 12:27:27;;;;;;;22.30;10.75;;;5.60;99.90;;;;;;4916748;29;20037;-87
2022/04/02 12:29:55;;;;;;;22.20;10.52;;;5.60;99.90;;;;;;4919969;29;20113;-86
2022/04/02 12:32:40;;;;;;;26.75;11.10;;;5.60;99.90;;;;;;4922213;29;20092;-87
2022/04/02 12:35:11;;;;;;;17.08;9.40;;;5.60;99.90;;;;;;4921749;29;20020;-86
2022/04/02 12:37:41;;;;;;;21.38;11.13;;;5.50;99.90;;;;;;4919822;29;20096;-90
2022/04/02 12:40:38;;;;;;;20.15;9.48;;;5.50;99.90;;;;;;4922232;29;20040;-86
2022/04/02 12:43:09;;;;;;;26.58;11.38;;;5.40;99.90;;;;;;4904455;29;20043;-87
2022/04/02 12:45:37;;;;;;;26.92;10.52;;;5.50;99.90;;;;;;4917714;29;20037;-87
2022/04/02 12:48:05;;;;;;;21.90;11.27;;;5.50;99.90;;;;;;4901168;29;20039;-87
2022/04/02 12:50:35;;;;;;;21.42;10.85;;;5.50;99.90;;;;;;4921970;29;20044;-88
2022/04/02 12:53:03;;;;;;;19.30;11.27;;;5.60;99.90;;;;;;4918254;29;20092;-88
2022/04/02 12:55:32;;;;;;;28.55;10.82;;;5.60;99.90;;;;;;4917318;29;20029;-88
2022/04/02 12:58:07;;;;;;;21.67;10.82;;;5.70;99.90;;;;;;4900901;29;20048;-87
2022/04/02 13:00:44;;;;;;;23.90;11.35;;;5.70;99.90;;;;;;4914928;29;20028;-88
2022/04/02 13:03:30;;;;;;;20.58;10.88;;;5.70;99.90;;;;;;4913749;29;20036;-88